createdAt,value
2022-08-31T00:01:35.975Z,20.91
2022-08-31T00:04:27.215Z,20.76
2022-08-31T00:07:15.756Z,20.52
2022-08-31T00:10:13.952Z,20.46
2022-08-31T00:13:03.034Z,20.40
2022-08-31T00:15:52.779Z,20.50
2022-08-31T00:18:41.355Z,20.57
2022-08-31T00:21:31.479Z,20.50
2022-08-31T00:24:20.004Z,20.50
2022-08-31T00:27:08.548Z,20.43
2022-08-31T00:29:57.069Z,20.38
2022-08-31T00:32:45.653Z,20.31
2022-08-31T00:35:37.649Z,20.08
2022-08-31T00:38:27.482Z,20.32
2022-08-31T00:41:16.928Z,20.30
2022-08-31T00:44:07.981Z,20.17
2022-08-31T00:46:56.463Z,20.26
2022-08-31T00:49:50.020Z,20.34
2022-08-31T00:52:41.056Z,20.34
2022-08-31T00:55:34.637Z,20.25
2022-08-31T00:58:23.618Z,20.07
2022-08-31T01:01:13.038Z,20.41
2022-08-31T01:04:01.599Z,20.35
2022-08-31T01:06:50.654Z,20.40
2022-08-31T01:09:52.657Z,20.41
2022-08-31T01:12:47.303Z,20.36
2022-08-31T01:15:37.191Z,20.37
2022-08-31T01:18:25.913Z,20.39
2022-08-31T01:21:24.442Z,20.37
2022-08-31T01:24:15.240Z,20.29
2022-08-31T01:27:07.698Z,20.24
2022-08-31T01:30:00.235Z,20.21
2022-08-31T01:32:48.803Z,20.19
2022-08-31T01:35:37.348Z,20.09
2022-08-31T01:38:26.203Z,20.04
2022-08-31T01:41:16.361Z,19.99
2022-08-31T01:44:04.866Z,20.06
2022-08-31T01:46:54.107Z,20.02
2022-08-31T01:49:42.675Z,19.96
2022-08-31T01:52:31.183Z,19.93
2022-08-31T01:55:19.884Z,19.81
2022-08-31T01:58:09.908Z,19.88
2022-08-31T02:00:58.542Z,19.86
2022-08-31T02:03:47.035Z,19.90
2022-08-31T02:06:36.501Z,19.93
2022-08-31T02:09:25.266Z,19.89
2022-08-31T02:12:13.809Z,19.82
2022-08-31T02:15:03.820Z,19.79
2022-08-31T02:17:52.910Z,19.78
2022-08-31T02:20:41.454Z,19.78
2022-08-31T02:23:29.920Z,19.72
2022-08-31T02:26:18.949Z,19.41
2022-08-31T02:29:08.190Z,19.70
2022-08-31T02:31:58.477Z,19.68
2022-08-31T02:34:46.998Z,19.59
2022-08-31T02:37:35.511Z,19.59
2022-08-31T02:40:24.141Z,19.51
2022-08-31T02:43:16.489Z,19.49
2022-08-31T02:46:13.190Z,19.43
2022-08-31T02:49:03.597Z,19.34
2022-08-31T02:51:52.077Z,19.37
2022-08-31T02:54:40.595Z,19.37
2022-08-31T02:57:29.160Z,19.35
2022-08-31T03:00:18.580Z,19.31
2022-08-31T03:03:07.531Z,19.32
2022-08-31T03:05:57.532Z,19.21
2022-08-31T03:08:46.601Z,19.00
2022-08-31T03:11:35.183Z,19.25
2022-08-31T03:14:23.753Z,19.17
2022-08-31T03:17:12.348Z,19.22
2022-08-31T03:20:02.798Z,19.18
2022-08-31T03:22:52.821Z,19.22
2022-08-31T03:25:41.335Z,19.26
2022-08-31T03:28:29.811Z,19.29
2022-08-31T03:31:18.394Z,19.28
2022-08-31T03:34:06.915Z,19.26
2022-08-31T03:36:55.440Z,19.22
2022-08-31T03:39:45.343Z,19.18
2022-08-31T03:42:33.901Z,19.16
2022-08-31T03:45:22.550Z,18.97
2022-08-31T03:48:13.113Z,19.15
2022-08-31T03:51:02.093Z,19.13
2022-08-31T03:53:50.585Z,19.15
2022-08-31T03:56:41.600Z,19.09
2022-08-31T03:59:30.125Z,19.10
2022-08-31T04:02:18.711Z,19.18
2022-08-31T04:05:08.692Z,19.23
2022-08-31T04:07:57.266Z,19.26
2022-08-31T04:10:47.819Z,19.30
2022-08-31T04:13:39.008Z,19.39
2022-08-31T04:16:27.890Z,19.37
2022-08-31T04:19:17.535Z,19.38
2022-08-31T04:22:06.046Z,19.40
2022-08-31T04:24:54.662Z,19.44
2022-08-31T04:27:43.151Z,19.48
2022-08-31T04:30:33.048Z,19.41
2022-08-31T04:33:21.609Z,19.29
2022-08-31T04:36:12.458Z,19.33
2022-08-31T04:39:02.755Z,19.35
2022-08-31T04:41:51.539Z,19.46
2022-08-31T04:44:40.011Z,19.47
2022-08-31T04:47:29.971Z,19.36
2022-08-31T04:50:18.665Z,19.46
2022-08-31T04:53:07.435Z,19.37
2022-08-31T04:55:55.930Z,19.53
2022-08-31T04:58:46.019Z,19.48
2022-08-31T05:01:42.826Z,19.58
2022-08-31T05:04:33.558Z,19.70
2022-08-31T05:07:22.148Z,19.56
2022-08-31T05:10:11.269Z,19.59
2022-08-31T05:12:59.793Z,19.62
2022-08-31T05:15:50.559Z,19.60
2022-08-31T05:18:45.387Z,19.48
2022-08-31T05:21:36.868Z,19.46
2022-08-31T05:24:25.380Z,19.42
2022-08-31T05:27:14.102Z,19.42
2022-08-31T05:30:02.908Z,19.52
2022-08-31T05:32:51.466Z,19.57
2022-08-31T05:35:40.808Z,19.49
2022-08-31T05:38:30.717Z,19.50
2022-08-31T05:41:19.218Z,19.47
2022-08-31T05:44:08.480Z,19.42
2022-08-31T05:47:03.662Z,19.27
2022-08-31T05:49:52.770Z,19.21
2022-08-31T05:52:41.337Z,19.11
2022-08-31T05:55:31.288Z,19.17
2022-08-31T05:58:19.955Z,19.13
2022-08-31T06:01:14.811Z,19.20
2022-08-31T06:04:04.142Z,19.14
2022-08-31T06:06:52.992Z,19.12
2022-08-31T06:09:41.893Z,19.11
2022-08-31T06:12:34.270Z,19.09
2022-08-31T06:15:22.763Z,19.12
2022-08-31T06:18:11.731Z,19.18
2022-08-31T06:21:05.002Z,19.24
2022-08-31T06:23:54.918Z,19.28
2022-08-31T06:26:43.506Z,19.25
2022-08-31T06:29:33.860Z,19.15
2022-08-31T06:32:23.645Z,19.33
2022-08-31T06:35:12.200Z,19.31
2022-08-31T06:38:00.748Z,19.27
2022-08-31T06:40:49.974Z,19.30
2022-08-31T06:43:38.577Z,19.25
2022-08-31T06:46:29.657Z,19.31
2022-08-31T06:49:19.184Z,19.32
2022-08-31T06:52:07.870Z,19.37
2022-08-31T06:54:56.343Z,19.38
2022-08-31T06:57:45.815Z,19.43
2022-08-31T07:00:34.353Z,19.42
2022-08-31T07:03:24.259Z,19.42
2022-08-31T07:06:15.253Z,19.50
2022-08-31T07:09:06.354Z,19.48
2022-08-31T07:11:55.108Z,19.47
2022-08-31T07:14:50.183Z,19.53
2022-08-31T07:17:43.508Z,19.57
2022-08-31T07:20:33.390Z,19.69
2022-08-31T07:23:21.915Z,19.74
2022-08-31T07:26:12.732Z,19.72
2022-08-31T07:29:05.027Z,19.66
2022-08-31T07:31:56.186Z,19.64
2022-08-31T07:34:44.980Z,18.87
2022-08-31T07:37:52.277Z,19.72
2022-08-31T07:40:58.280Z,19.28
2022-08-31T07:43:46.822Z,19.93
2022-08-31T07:46:36.245Z,20.06
2022-08-31T07:49:26.259Z,20.03
2022-08-31T07:52:18.852Z,20.19
2022-08-31T07:55:11.854Z,20.19
2022-08-31T07:58:00.444Z,19.95
2022-08-31T08:00:50.148Z,20.19
2022-08-31T08:03:44.084Z,20.19
2022-08-31T08:06:34.201Z,20.13
2022-08-31T08:09:24.386Z,19.94
2022-08-31T08:12:15.212Z,19.77
2022-08-31T08:15:05.427Z,20.14
2022-08-31T08:17:54.010Z,20.18
2022-08-31T08:20:42.590Z,19.55
2022-08-31T08:23:31.358Z,20.27
2022-08-31T08:26:21.778Z,20.35
2022-08-31T08:29:12.261Z,20.29
2022-08-31T08:32:00.928Z,20.27
2022-08-31T08:34:49.650Z,20.27
2022-08-31T08:37:57.319Z,20.13
2022-08-31T08:40:47.340Z,20.38
2022-08-31T08:43:37.929Z,20.17
2022-08-31T08:46:35.502Z,20.44
2022-08-31T08:49:31.253Z,20.48
2022-08-31T08:52:24.975Z,20.53
2022-08-31T08:55:16.814Z,20.66
2022-08-31T08:58:07.860Z,20.65
2022-08-31T09:00:57.218Z,20.79
2022-08-31T09:03:53.366Z,20.73
2022-08-31T09:06:48.289Z,20.85
2022-08-31T09:09:43.481Z,20.73
2022-08-31T09:12:38.427Z,20.73
2022-08-31T09:15:48.408Z,20.74
2022-08-31T09:18:45.786Z,20.55
2022-08-31T09:21:37.242Z,20.45
2022-08-31T09:24:28.052Z,20.40
2022-08-31T09:27:19.293Z,20.38
2022-08-31T09:30:09.081Z,20.41
2022-08-31T09:32:58.662Z,20.17
2022-08-31T09:35:48.118Z,20.03
2022-08-31T09:38:39.469Z,19.85
2022-08-31T09:41:33.269Z,19.61
2022-08-31T09:44:26.755Z,19.40
2022-08-31T09:47:44.529Z,19.54
2022-08-31T09:50:37.015Z,19.51
2022-08-31T09:53:44.704Z,19.49
2022-08-31T09:56:54.994Z,19.52
2022-08-31T09:59:48.069Z,19.69
2022-08-31T10:02:37.910Z,19.76
2022-08-31T10:05:32.925Z,19.79
2022-08-31T10:08:41.985Z,19.53
2022-08-31T10:11:32.661Z,19.54
2022-08-31T10:14:30.909Z,19.54
2022-08-31T10:17:26.076Z,19.56
2022-08-31T10:20:19.587Z,19.61
2022-08-31T10:23:17.048Z,19.47
2022-08-31T10:26:11.710Z,19.54
2022-08-31T10:29:06.166Z,19.62
2022-08-31T10:31:58.728Z,19.68
2022-08-31T10:35:03.571Z,19.69
2022-08-31T10:37:59.916Z,19.77
2022-08-31T10:40:52.467Z,19.84
2022-08-31T10:43:49.030Z,19.88
2022-08-31T10:46:37.745Z,19.87
2022-08-31T10:49:28.047Z,19.88
2022-08-31T10:52:18.339Z,19.91
2022-08-31T10:55:13.342Z,19.95
2022-08-31T10:58:08.478Z,19.92
2022-08-31T11:01:01.594Z,19.83
2022-08-31T11:04:04.794Z,19.82
2022-08-31T11:06:59.464Z,19.80
2022-08-31T11:09:54.946Z,19.76
2022-08-31T11:12:46.264Z,19.81
2022-08-31T11:15:58.068Z,19.74
2022-08-31T11:18:59.087Z,19.53
2022-08-31T11:22:06.619Z,19.76
2022-08-31T11:25:25.238Z,19.84
2022-08-31T11:28:22.429Z,19.84
2022-08-31T11:31:23.700Z,19.92
2022-08-31T11:34:17.190Z,19.71
2022-08-31T11:37:09.087Z,19.91
2022-08-31T11:39:57.694Z,19.87
2022-08-31T11:43:01.124Z,19.86
2022-08-31T11:45:51.114Z,19.99
2022-08-31T11:49:00.203Z,19.96
2022-08-31T11:51:48.782Z,19.62
2022-08-31T11:55:06.668Z,19.84
2022-08-31T11:58:23.436Z,19.86
2022-08-31T12:01:34.151Z,19.95
2022-08-31T12:04:57.467Z,19.91
2022-08-31T12:07:48.449Z,19.90
2022-08-31T12:10:47.042Z,19.95
2022-08-31T12:13:41.144Z,20.10
2022-08-31T12:16:39.318Z,19.89
2022-08-31T12:20:02.688Z,20.17
2022-08-31T12:23:35.111Z,20.04
2022-08-31T12:26:49.424Z,20.05
2022-08-31T12:29:39.229Z,20.05
2022-08-31T12:32:29.996Z,20.11
2022-08-31T12:35:22.644Z,20.15
2022-08-31T12:38:19.548Z,20.26
2022-08-31T12:41:10.981Z,20.29
2022-08-31T12:44:03.957Z,20.41
2022-08-31T12:47:03.099Z,20.47
2022-08-31T12:50:03.220Z,20.50
2022-08-31T12:53:34.329Z,20.48
2022-08-31T12:56:27.690Z,20.49
2022-08-31T12:59:45.708Z,20.51
2022-08-31T13:02:41.984Z,20.48
2022-08-31T13:05:33.709Z,20.68
2022-08-31T13:08:26.178Z,20.60
2022-08-31T13:11:26.128Z,20.51
2022-08-31T13:14:27.135Z,20.60
2022-08-31T13:17:18.021Z,20.70
2022-08-31T13:20:08.243Z,20.17
2022-08-31T13:22:58.765Z,20.82
2022-08-31T13:25:51.769Z,20.92
2022-08-31T13:28:41.167Z,20.87
2022-08-31T13:31:33.729Z,20.82
2022-08-31T13:34:23.527Z,20.85
2022-08-31T13:37:15.877Z,20.84
2022-08-31T13:40:08.125Z,21.05
2022-08-31T13:42:57.486Z,21.22
2022-08-31T13:45:58.254Z,21.30
2022-08-31T13:48:53.916Z,21.32
2022-08-31T13:51:46.377Z,21.42
2022-08-31T13:54:36.897Z,21.54
2022-08-31T13:57:28.374Z,21.58
2022-08-31T14:00:28.312Z,21.03
2022-08-31T14:03:33.848Z,21.78
2022-08-31T14:06:26.192Z,21.95
2022-08-31T14:09:17.427Z,22.05
2022-08-31T14:12:06.475Z,21.89
2022-08-31T14:14:59.447Z,21.75
2022-08-31T14:21:21.587Z,22.00
2022-08-31T14:24:13.267Z,22.00
2022-08-31T14:27:01.854Z,22.01
2022-08-31T14:29:52.149Z,22.01
2022-08-31T14:32:43.918Z,21.89
2022-08-31T14:35:32.735Z,22.17
2022-08-31T14:38:21.391Z,22.19
2022-08-31T14:41:13.603Z,22.20
2022-08-31T14:44:07.066Z,22.39
2022-08-31T14:46:55.656Z,22.44
2022-08-31T14:49:45.453Z,22.48
2022-08-31T14:52:35.119Z,22.52
2022-08-31T14:55:25.737Z,22.52
2022-08-31T14:58:17.333Z,22.77
2022-08-31T15:01:06.305Z,22.80
2022-08-31T15:03:55.224Z,22.77
2022-08-31T15:06:44.168Z,22.77
2022-08-31T15:09:32.885Z,22.70
2022-08-31T15:12:21.896Z,22.65
2022-08-31T15:15:15.084Z,22.69
2022-08-31T15:18:04.770Z,22.80
2022-08-31T15:20:53.319Z,22.76
2022-08-31T15:23:43.428Z,22.71
2022-08-31T15:26:31.970Z,22.67
2022-08-31T15:29:24.764Z,22.55
2022-08-31T15:32:16.548Z,22.51
2022-08-31T15:35:05.740Z,22.49
2022-08-31T15:37:58.742Z,22.49
2022-08-31T15:40:47.409Z,22.44
2022-08-31T15:43:36.304Z,22.44
2022-08-31T15:46:38.894Z,22.29
2022-08-31T15:49:28.886Z,22.51
2022-08-31T15:52:18.958Z,22.49
2022-08-31T15:55:08.038Z,21.92
2022-08-31T15:57:58.838Z,22.46
2022-08-31T16:00:49.809Z,22.31
2022-08-31T16:03:41.992Z,22.41
2022-08-31T16:06:32.743Z,22.34
2022-08-31T16:09:21.580Z,22.36
2022-08-31T16:12:12.402Z,21.68
2022-08-31T16:15:01.001Z,22.30
2022-08-31T16:17:49.755Z,22.33
2022-08-31T16:20:39.227Z,22.33
2022-08-31T16:23:32.724Z,22.29
2022-08-31T16:26:21.729Z,22.29
2022-08-31T16:29:14.139Z,22.29
2022-08-31T16:32:02.998Z,22.21
2022-08-31T16:34:52.726Z,22.30
2022-08-31T16:37:41.508Z,22.24
2022-08-31T16:40:32.045Z,22.20
2022-08-31T16:43:20.746Z,21.87
2022-08-31T16:46:37.437Z,22.12
2022-08-31T16:49:36.400Z,22.10
2022-08-31T16:52:27.150Z,22.06
2022-08-31T16:55:15.953Z,22.04
2022-08-31T16:58:05.890Z,22.05
2022-08-31T17:00:55.436Z,22.10
2022-08-31T17:03:46.687Z,22.13
2022-08-31T17:06:37.644Z,22.08
2022-08-31T17:09:28.207Z,22.00
2022-08-31T17:12:19.230Z,21.99
2022-08-31T17:15:13.877Z,21.94
2022-08-31T17:18:02.484Z,21.86
2022-08-31T17:20:53.273Z,21.86
2022-08-31T17:23:41.912Z,21.81
2022-08-31T17:26:33.627Z,21.77
2022-08-31T17:29:23.514Z,21.44
2022-08-31T17:32:16.265Z,21.72
2022-08-31T17:35:05.714Z,21.62
2022-08-31T17:37:58.359Z,20.92
2022-08-31T17:40:47.975Z,21.61
2022-08-31T17:43:38.827Z,21.51
2022-08-31T17:46:28.128Z,21.55
2022-08-31T17:49:19.891Z,21.52
2022-08-31T17:52:08.885Z,21.46
2022-08-31T17:55:00.298Z,21.42
2022-08-31T17:57:48.902Z,21.30
2022-08-31T18:00:37.550Z,21.39
2022-08-31T18:03:26.370Z,21.29
2022-08-31T18:06:19.410Z,21.30
2022-08-31T18:09:07.968Z,21.15
2022-08-31T18:11:59.452Z,21.25
2022-08-31T18:14:47.995Z,21.19
2022-08-31T18:17:36.661Z,21.15
2022-08-31T18:20:25.269Z,21.12
2022-08-31T18:23:16.429Z,20.89
2022-08-31T18:26:14.285Z,21.07
2022-08-31T18:29:04.052Z,20.56
2022-08-31T18:31:53.991Z,21.07
2022-08-31T18:34:44.850Z,21.04
2022-08-31T18:37:33.556Z,20.98
2022-08-31T18:40:41.484Z,20.94
2022-08-31T18:43:47.818Z,20.87
2022-08-31T18:46:36.571Z,20.59
2022-08-31T18:49:25.384Z,20.76
2022-08-31T18:52:19.177Z,20.68
2022-08-31T18:55:08.554Z,20.68
2022-08-31T18:57:58.408Z,20.61
2022-08-31T19:00:57.086Z,20.50
2022-08-31T19:03:46.520Z,20.33
2022-08-31T19:06:35.841Z,20.27
2022-08-31T19:09:24.416Z,19.78
2022-08-31T19:12:19.521Z,20.31
2022-08-31T19:15:10.719Z,20.30
2022-08-31T19:18:00.502Z,20.17
2022-08-31T19:20:49.082Z,20.07
2022-08-31T19:23:37.880Z,20.02
2022-08-31T19:26:29.406Z,19.98
2022-08-31T19:29:22.821Z,20.00
2022-08-31T19:32:13.823Z,19.94
2022-08-31T19:35:02.537Z,19.84
2022-08-31T19:37:51.908Z,19.66
2022-08-31T19:40:40.841Z,19.56
2022-08-31T19:43:53.589Z,19.65
2022-08-31T19:46:41.186Z,19.54
2022-08-31T19:49:32.459Z,19.49
2022-08-31T19:52:21.192Z,19.35
2022-08-31T19:55:11.122Z,19.18
2022-08-31T19:57:59.721Z,19.17
2022-08-31T20:00:49.921Z,19.14
2022-08-31T20:03:38.831Z,19.02
2022-08-31T20:06:29.165Z,19.11
2022-08-31T20:09:18.910Z,19.09
2022-08-31T20:12:08.203Z,19.01
2022-08-31T20:14:57.083Z,18.15
2022-08-31T20:17:48.084Z,18.77
2022-08-31T20:20:45.277Z,18.86
2022-08-31T20:23:35.701Z,18.75
2022-08-31T20:26:26.117Z,18.70
2022-08-31T20:29:23.150Z,18.67
2022-08-31T20:32:12.053Z,18.60
2022-08-31T20:35:02.023Z,18.50
2022-08-31T20:37:51.204Z,18.36
2022-08-31T20:40:41.469Z,18.26
2022-08-31T20:43:35.273Z,18.34
2022-08-31T20:46:41.399Z,18.12
2022-08-31T20:49:31.537Z,18.24
2022-08-31T20:52:21.382Z,18.25
2022-08-31T20:55:12.396Z,18.15
2022-08-31T20:58:02.353Z,18.16
2022-08-31T21:00:51.101Z,18.16
2022-08-31T21:03:39.718Z,18.13
2022-08-31T21:06:28.316Z,18.12
2022-08-31T21:09:17.029Z,18.05
2022-08-31T21:12:07.868Z,18.01
2022-08-31T21:14:57.808Z,17.97
2022-08-31T21:17:48.150Z,17.91
2022-08-31T21:20:37.828Z,17.90
2022-08-31T21:23:27.045Z,17.89
2022-08-31T21:26:19.573Z,17.66
2022-08-31T21:29:10.307Z,17.82
2022-08-31T21:32:03.874Z,17.82
2022-08-31T21:34:56.433Z,17.76
2022-08-31T21:37:44.971Z,17.75
2022-08-31T21:40:34.847Z,17.61
2022-08-31T21:43:23.487Z,17.57
2022-08-31T21:46:14.174Z,17.63
2022-08-31T21:49:06.754Z,17.36
2022-08-31T21:51:57.718Z,17.53
2022-08-31T21:54:47.979Z,17.50
2022-08-31T21:57:37.091Z,17.51
2022-08-31T22:00:30.976Z,17.44
2022-08-31T22:03:22.357Z,17.40
2022-08-31T22:06:14.137Z,17.23
2022-08-31T22:09:06.480Z,17.38
2022-08-31T22:11:56.493Z,17.34
2022-08-31T22:14:45.194Z,17.31
2022-08-31T22:17:59.282Z,17.31
2022-08-31T22:20:45.484Z,17.30
2022-08-31T22:23:36.603Z,17.15
2022-08-31T22:26:27.157Z,17.22
2022-08-31T22:29:21.736Z,17.20
2022-08-31T22:32:12.401Z,17.17
2022-08-31T22:35:00.991Z,17.13
2022-08-31T22:37:49.577Z,17.11
2022-08-31T22:40:39.828Z,17.02
2022-08-31T22:43:29.693Z,17.11
2022-08-31T22:46:20.877Z,17.10
2022-08-31T22:49:09.814Z,17.12
2022-08-31T22:51:58.411Z,17.12
2022-08-31T22:54:46.983Z,17.20
2022-08-31T22:57:37.753Z,17.11
2022-08-31T23:00:26.312Z,17.05
2022-08-31T23:03:15.082Z,16.95
2022-08-31T23:06:03.600Z,16.94
2022-08-31T23:08:53.037Z,16.94
2022-08-31T23:11:41.656Z,16.82
2022-08-31T23:14:32.568Z,16.82
2022-08-31T23:17:21.066Z,16.76
2022-08-31T23:20:10.998Z,16.76
2022-08-31T23:23:00.963Z,16.73
2022-08-31T23:25:50.307Z,16.74
2022-08-31T23:28:39.856Z,16.69
2022-08-31T23:31:30.234Z,16.67
2022-08-31T23:34:19.706Z,16.68
2022-08-31T23:37:09.878Z,16.64
2022-08-31T23:39:59.752Z,16.64
2022-08-31T23:42:48.659Z,16.62
2022-08-31T23:45:37.876Z,16.65
2022-08-31T23:48:27.766Z,16.61
2022-08-31T23:51:16.361Z,16.60
2022-08-31T23:54:07.677Z,16.43
2022-08-31T23:56:57.712Z,16.54
2022-08-31T23:59:51.011Z,16.52
